sensor_id;sensor_type;location;lat;lon;timestamp;P1;durP1;ratioP1;P2;durP2;ratioP2
70588;SDS011;58152;49.202;18.744;2022-12-18T00:00:08;57.33;;;25.93;;
70588;SDS011;58152;49.202;18.744;2022-12-18T00:02:34;57.30;;;25.60;;
70588;SDS011;58152;49.202;18.744;2022-12-18T00:05:00;57.37;;;25.80;;
70588;SDS011;58152;49.202;18.744;2022-12-18T00:07:25;61.40;;;26.20;;
70588;SDS011;58152;49.202;18.744;2022-12-18T00:09:51;55.67;;;23.50;;
70588;SDS011;58152;49.202;18.744;2022-12-18T00:12:16;60.33;;;25.30;;
70588;SDS011;58152;49.202;18.744;2022-12-18T00:14:45;54.90;;;24.30;;
70588;SDS011;58152;49.202;18.744;2022-12-18T00:17:10;57.87;;;24.13;;
70588;SDS011;58152;49.202;18.744;2022-12-18T00:19:36;53.53;;;25.47;;
70588;SDS011;58152;49.202;18.744;2022-12-18T00:22:01;50.43;;;23.00;;
70588;SDS011;58152;49.202;18.744;2022-12-18T00:24:27;54.40;;;26.13;;
70588;SDS011;58152;49.202;18.744;2022-12-18T00:26:52;57.43;;;25.50;;
70588;SDS011;58152;49.202;18.744;2022-12-18T00:29:18;57.53;;;24.73;;
70588;SDS011;58152;49.202;18.744;2022-12-18T00:31:43;56.03;;;25.60;;
70588;SDS011;58152;49.202;18.744;2022-12-18T00:34:12;54.93;;;23.47;;
70588;SDS011;58152;49.202;18.744;2022-12-18T00:36:39;46.60;;;24.93;;
70588;SDS011;58152;49.202;18.744;2022-12-18T00:39:06;55.43;;;24.50;;
70588;SDS011;58152;49.202;18.744;2022-12-18T00:41:31;51.63;;;21.60;;
70588;SDS011;58152;49.202;18.744;2022-12-18T00:44:16;49.57;;;21.60;;
70588;SDS011;58152;49.202;18.744;2022-12-18T00:46:42;51.47;;;22.90;;
70588;SDS011;58152;49.202;18.744;2022-12-18T00:49:09;53.17;;;22.27;;
70588;SDS011;58152;49.202;18.744;2022-12-18T00:51:39;49.47;;;22.37;;
70588;SDS011;58152;49.202;18.744;2022-12-18T00:54:05;54.53;;;23.63;;
70588;SDS011;58152;49.202;18.744;2022-12-18T00:56:30;54.67;;;24.23;;
70588;SDS011;58152;49.202;18.744;2022-12-18T00:58:56;58.47;;;25.53;;
70588;SDS011;58152;49.202;18.744;2022-12-18T01:01:22;54.87;;;26.07;;
70588;SDS011;58152;49.202;18.744;2022-12-18T01:03:47;54.20;;;24.07;;
70588;SDS011;58152;49.202;18.744;2022-12-18T01:06:13;50.33;;;22.07;;
70588;SDS011;58152;49.202;18.744;2022-12-18T01:08:40;56.30;;;24.90;;
70588;SDS011;58152;49.202;18.744;2022-12-18T01:11:16;54.43;;;23.73;;
70588;SDS011;58152;49.202;18.744;2022-12-18T01:13:42;60.47;;;26.83;;
70588;SDS011;58152;49.202;18.744;2022-12-18T01:16:11;57.93;;;25.43;;
70588;SDS011;58152;49.202;18.744;2022-12-18T01:18:37;54.20;;;23.67;;
70588;SDS011;58152;49.202;18.744;2022-12-18T01:21:10;60.47;;;26.03;;
70588;SDS011;58152;49.202;18.744;2022-12-18T01:23:38;56.97;;;23.37;;
70588;SDS011;58152;49.202;18.744;2022-12-18T01:26:07;52.63;;;24.27;;
70588;SDS011;58152;49.202;18.744;2022-12-18T01:28:34;54.60;;;24.70;;
70588;SDS011;58152;49.202;18.744;2022-12-18T01:31:16;54.63;;;23.37;;
70588;SDS011;58152;49.202;18.744;2022-12-18T01:36:20;47.67;;;23.13;;
70588;SDS011;58152;49.202;18.744;2022-12-18T01:38:47;51.90;;;23.73;;
70588;SDS011;58152;49.202;18.744;2022-12-18T01:41:17;50.17;;;24.10;;
70588;SDS011;58152;49.202;18.744;2022-12-18T01:43:55;54.27;;;22.43;;
70588;SDS011;58152;49.202;18.744;2022-12-18T01:46:23;51.43;;;24.10;;
70588;SDS011;58152;49.202;18.744;2022-12-18T01:48:51;50.90;;;22.37;;
70588;SDS011;58152;49.202;18.744;2022-12-18T01:51:20;55.87;;;23.27;;
70588;SDS011;58152;49.202;18.744;2022-12-18T01:53:46;52.57;;;23.80;;
70588;SDS011;58152;49.202;18.744;2022-12-18T01:56:13;63.40;;;26.03;;
70588;SDS011;58152;49.202;18.744;2022-12-18T01:58:43;59.67;;;25.70;;
70588;SDS011;58152;49.202;18.744;2022-12-18T02:01:15;59.90;;;24.70;;
70588;SDS011;58152;49.202;18.744;2022-12-18T02:03:41;59.23;;;24.03;;
70588;SDS011;58152;49.202;18.744;2022-12-18T02:11:14;57.77;;;24.53;;
70588;SDS011;58152;49.202;18.744;2022-12-18T02:22:06;62.10;;;26.47;;
70588;SDS011;58152;49.202;18.744;2022-12-18T02:27:54;53.27;;;22.27;;
70588;SDS011;58152;49.202;18.744;2022-12-18T02:33:01;47.93;;;21.37;;
70588;SDS011;58152;49.202;18.744;2022-12-18T02:35:29;59.70;;;24.83;;
70588;SDS011;58152;49.202;18.744;2022-12-18T02:37:56;57.53;;;24.47;;
70588;SDS011;58152;49.202;18.744;2022-12-18T02:40:24;58.77;;;26.13;;
70588;SDS011;58152;49.202;18.744;2022-12-18T02:42:52;54.63;;;23.37;;
70588;SDS011;58152;49.202;18.744;2022-12-18T02:45:18;52.97;;;23.90;;
70588;SDS011;58152;49.202;18.744;2022-12-18T02:47:45;57.57;;;22.77;;
70588;SDS011;58152;49.202;18.744;2022-12-18T02:52:56;56.07;;;23.07;;
70588;SDS011;58152;49.202;18.744;2022-12-18T02:55:45;61.10;;;23.97;;
70588;SDS011;58152;49.202;18.744;2022-12-18T02:58:20;54.53;;;23.20;;
70588;SDS011;58152;49.202;18.744;2022-12-18T03:01:11;49.17;;;21.97;;
70588;SDS011;58152;49.202;18.744;2022-12-18T03:03:42;50.20;;;21.50;;
70588;SDS011;58152;49.202;18.744;2022-12-18T03:06:23;47.23;;;21.10;;
70588;SDS011;58152;49.202;18.744;2022-12-18T03:08:54;54.07;;;23.00;;
70588;SDS011;58152;49.202;18.744;2022-12-18T03:11:23;58.23;;;23.83;;
70588;SDS011;58152;49.202;18.744;2022-12-18T03:14:10;53.95;;;23.70;;
70588;SDS011;58152;49.202;18.744;2022-12-18T03:16:39;53.27;;;23.77;;
70588;SDS011;58152;49.202;18.744;2022-12-18T03:19:07;46.70;;;21.10;;
70588;SDS011;58152;49.202;18.744;2022-12-18T03:21:39;54.53;;;22.30;;
70588;SDS011;58152;49.202;18.744;2022-12-18T03:24:08;50.17;;;22.07;;
70588;SDS011;58152;49.202;18.744;2022-12-18T03:26:36;52.63;;;21.87;;
70588;SDS011;58152;49.202;18.744;2022-12-18T03:31:57;46.73;;;21.90;;
70588;SDS011;58152;49.202;18.744;2022-12-18T03:34:33;44.53;;;19.57;;
70588;SDS011;58152;49.202;18.744;2022-12-18T03:37:01;50.43;;;22.13;;
70588;SDS011;58152;49.202;18.744;2022-12-18T03:39:27;51.70;;;21.90;;
70588;SDS011;58152;49.202;18.744;2022-12-18T03:41:55;56.13;;;22.67;;
70588;SDS011;58152;49.202;18.744;2022-12-18T03:53:23;49.80;;;21.07;;
70588;SDS011;58152;49.202;18.744;2022-12-18T03:56:07;57.57;;;21.93;;
70588;SDS011;58152;49.202;18.744;2022-12-18T03:58:35;46.17;;;21.83;;
70588;SDS011;58152;49.202;18.744;2022-12-18T04:01:03;53.73;;;21.67;;
70588;SDS011;58152;49.202;18.744;2022-12-18T04:03:33;52.30;;;23.83;;
70588;SDS011;58152;49.202;18.744;2022-12-18T04:06:03;56.20;;;22.73;;
70588;SDS011;58152;49.202;18.744;2022-12-18T04:08:30;59.53;;;24.70;;
70588;SDS011;58152;49.202;18.744;2022-12-18T04:10:56;53.00;;;21.93;;
70588;SDS011;58152;49.202;18.744;2022-12-18T04:13:23;52.30;;;21.87;;
70588;SDS011;58152;49.202;18.744;2022-12-18T04:15:49;47.50;;;22.07;;
70588;SDS011;58152;49.202;18.744;2022-12-18T04:18:16;51.77;;;19.60;;
70588;SDS011;58152;49.202;18.744;2022-12-18T04:20:41;49.10;;;20.53;;
70588;SDS011;58152;49.202;18.744;2022-12-18T04:23:08;51.37;;;21.00;;
70588;SDS011;58152;49.202;18.744;2022-12-18T04:25:33;46.60;;;19.63;;
70588;SDS011;58152;49.202;18.744;2022-12-18T04:27:59;48.13;;;19.53;;
70588;SDS011;58152;49.202;18.744;2022-12-18T04:30:24;47.03;;;19.13;;
70588;SDS011;58152;49.202;18.744;2022-12-18T04:32:53;46.27;;;20.43;;
70588;SDS011;58152;49.202;18.744;2022-12-18T04:35:19;44.87;;;20.60;;
70588;SDS011;58152;49.202;18.744;2022-12-18T04:37:44;51.60;;;20.50;;
70588;SDS011;58152;49.202;18.744;2022-12-18T04:40:10;47.43;;;20.37;;
70588;SDS011;58152;49.202;18.744;2022-12-18T04:42:38;50.40;;;20.77;;
70588;SDS011;58152;49.202;18.744;2022-12-18T04:45:05;51.20;;;21.33;;
70588;SDS011;58152;49.202;18.744;2022-12-18T04:47:31;50.17;;;19.63;;
70588;SDS011;58152;49.202;18.744;2022-12-18T04:49:57;50.40;;;21.97;;
70588;SDS011;58152;49.202;18.744;2022-12-18T04:52:22;45.00;;;19.67;;
70588;SDS011;58152;49.202;18.744;2022-12-18T04:54:47;46.10;;;20.20;;
70588;SDS011;58152;49.202;18.744;2022-12-18T04:57:13;49.73;;;20.07;;
70588;SDS011;58152;49.202;18.744;2022-12-18T04:59:39;54.77;;;21.00;;
70588;SDS011;58152;49.202;18.744;2022-12-18T05:02:04;47.70;;;20.87;;
70588;SDS011;58152;49.202;18.744;2022-12-18T05:04:30;47.07;;;19.60;;
70588;SDS011;58152;49.202;18.744;2022-12-18T05:06:56;53.13;;;22.23;;
70588;SDS011;58152;49.202;18.744;2022-12-18T05:09:21;48.63;;;20.23;;
70588;SDS011;58152;49.202;18.744;2022-12-18T05:11:46;48.60;;;20.43;;
70588;SDS011;58152;49.202;18.744;2022-12-18T05:14:12;53.10;;;21.97;;
70588;SDS011;58152;49.202;18.744;2022-12-18T05:16:37;48.37;;;20.77;;
70588;SDS011;58152;49.202;18.744;2022-12-18T05:19:03;54.00;;;22.43;;
70588;SDS011;58152;49.202;18.744;2022-12-18T05:21:28;48.73;;;19.87;;
70588;SDS011;58152;49.202;18.744;2022-12-18T05:23:55;47.17;;;21.33;;
70588;SDS011;58152;49.202;18.744;2022-12-18T05:26:20;47.30;;;19.23;;
70588;SDS011;58152;49.202;18.744;2022-12-18T05:28:45;50.83;;;21.40;;
70588;SDS011;58152;49.202;18.744;2022-12-18T05:31:12;55.80;;;22.13;;
70588;SDS011;58152;49.202;18.744;2022-12-18T05:33:37;50.13;;;19.97;;
70588;SDS011;58152;49.202;18.744;2022-12-18T05:36:04;46.77;;;20.67;;
70588;SDS011;58152;49.202;18.744;2022-12-18T05:38:32;47.57;;;19.33;;
70588;SDS011;58152;49.202;18.744;2022-12-18T05:40:59;46.77;;;19.17;;
70588;SDS011;58152;49.202;18.744;2022-12-18T05:43:25;51.33;;;20.43;;
70588;SDS011;58152;49.202;18.744;2022-12-18T05:45:51;43.60;;;19.83;;
70588;SDS011;58152;49.202;18.744;2022-12-18T05:48:17;54.20;;;20.67;;
70588;SDS011;58152;49.202;18.744;2022-12-18T05:50:43;47.03;;;21.80;;
70588;SDS011;58152;49.202;18.744;2022-12-18T05:53:11;52.37;;;19.73;;
70588;SDS011;58152;49.202;18.744;2022-12-18T05:55:38;49.87;;;22.87;;
70588;SDS011;58152;49.202;18.744;2022-12-18T05:58:05;48.07;;;20.77;;
70588;SDS011;58152;49.202;18.744;2022-12-18T06:00:32;52.83;;;22.87;;
70588;SDS011;58152;49.202;18.744;2022-12-18T06:02:59;51.53;;;19.73;;
70588;SDS011;58152;49.202;18.744;2022-12-18T06:05:25;50.87;;;21.90;;
70588;SDS011;58152;49.202;18.744;2022-12-18T06:07:52;46.17;;;18.70;;
70588;SDS011;58152;49.202;18.744;2022-12-18T06:10:17;53.27;;;20.20;;
70588;SDS011;58152;49.202;18.744;2022-12-18T06:12:43;45.83;;;19.60;;
70588;SDS011;58152;49.202;18.744;2022-12-18T06:15:08;45.20;;;19.97;;
70588;SDS011;58152;49.202;18.744;2022-12-18T06:17:35;49.70;;;19.80;;
70588;SDS011;58152;49.202;18.744;2022-12-18T06:20:00;45.80;;;19.87;;
70588;SDS011;58152;49.202;18.744;2022-12-18T06:22:26;41.87;;;18.27;;
70588;SDS011;58152;49.202;18.744;2022-12-18T06:24:52;46.40;;;19.57;;
70588;SDS011;58152;49.202;18.744;2022-12-18T06:27:18;54.70;;;21.03;;
70588;SDS011;58152;49.202;18.744;2022-12-18T06:29:43;48.57;;;19.30;;
70588;SDS011;58152;49.202;18.744;2022-12-18T06:32:09;42.87;;;17.47;;
70588;SDS011;58152;49.202;18.744;2022-12-18T06:34:36;48.47;;;19.50;;
70588;SDS011;58152;49.202;18.744;2022-12-18T06:37:02;46.40;;;19.27;;
70588;SDS011;58152;49.202;18.744;2022-12-18T06:39:28;45.93;;;20.10;;
70588;SDS011;58152;49.202;18.744;2022-12-18T06:41:53;45.17;;;19.40;;
70588;SDS011;58152;49.202;18.744;2022-12-18T06:44:19;50.07;;;20.03;;
70588;SDS011;58152;49.202;18.744;2022-12-18T06:46:44;52.73;;;20.10;;
70588;SDS011;58152;49.202;18.744;2022-12-18T06:49:10;42.17;;;19.73;;
70588;SDS011;58152;49.202;18.744;2022-12-18T06:51:36;41.60;;;17.30;;
70588;SDS011;58152;49.202;18.744;2022-12-18T06:54:02;44.33;;;17.20;;
70588;SDS011;58152;49.202;18.744;2022-12-18T06:56:27;43.43;;;17.80;;
70588;SDS011;58152;49.202;18.744;2022-12-18T06:58:53;44.33;;;18.07;;
70588;SDS011;58152;49.202;18.744;2022-12-18T07:01:19;44.73;;;19.10;;
70588;SDS011;58152;49.202;18.744;2022-12-18T07:03:52;40.37;;;17.90;;
70588;SDS011;58152;49.202;18.744;2022-12-18T07:06:19;46.00;;;19.07;;
70588;SDS011;58152;49.202;18.744;2022-12-18T07:08:47;45.00;;;18.03;;
70588;SDS011;58152;49.202;18.744;2022-12-18T07:11:14;52.40;;;19.23;;
70588;SDS011;58152;49.202;18.744;2022-12-18T07:13:40;44.13;;;18.47;;
70588;SDS011;58152;49.202;18.744;2022-12-18T07:18:37;47.70;;;17.93;;
70588;SDS011;58152;49.202;18.744;2022-12-18T07:21:07;44.47;;;21.40;;
70588;SDS011;58152;49.202;18.744;2022-12-18T07:23:34;50.17;;;18.37;;
70588;SDS011;58152;49.202;18.744;2022-12-18T07:26:03;50.07;;;20.93;;
70588;SDS011;58152;49.202;18.744;2022-12-18T07:28:34;49.20;;;20.53;;
70588;SDS011;58152;49.202;18.744;2022-12-18T07:31:06;54.60;;;19.37;;
70588;SDS011;58152;49.202;18.744;2022-12-18T07:33:37;55.57;;;21.43;;
70588;SDS011;58152;49.202;18.744;2022-12-18T07:36:03;49.57;;;21.00;;
70588;SDS011;58152;49.202;18.744;2022-12-18T07:38:31;46.80;;;18.40;;
70588;SDS011;58152;49.202;18.744;2022-12-18T07:41:04;50.03;;;21.47;;
70588;SDS011;58152;49.202;18.744;2022-12-18T07:43:33;48.35;;;20.05;;
70588;SDS011;58152;49.202;18.744;2022-12-18T07:45:58;49.10;;;21.10;;
70588;SDS011;58152;49.202;18.744;2022-12-18T07:48:24;46.27;;;18.77;;
70588;SDS011;58152;49.202;18.744;2022-12-18T07:50:53;47.53;;;19.43;;
70588;SDS011;58152;49.202;18.744;2022-12-18T07:53:19;53.47;;;21.17;;
70588;SDS011;58152;49.202;18.744;2022-12-18T07:55:47;49.67;;;21.43;;
70588;SDS011;58152;49.202;18.744;2022-12-18T07:58:13;47.10;;;20.57;;
70588;SDS011;58152;49.202;18.744;2022-12-18T08:00:38;53.23;;;21.07;;
70588;SDS011;58152;49.202;18.744;2022-12-18T08:03:04;51.20;;;22.27;;
70588;SDS011;58152;49.202;18.744;2022-12-18T08:05:29;49.07;;;20.77;;
70588;SDS011;58152;49.202;18.744;2022-12-18T08:07:55;47.10;;;21.23;;
70588;SDS011;58152;49.202;18.744;2022-12-18T08:10:21;50.40;;;21.00;;
70588;SDS011;58152;49.202;18.744;2022-12-18T08:12:58;50.67;;;20.87;;
70588;SDS011;58152;49.202;18.744;2022-12-18T08:15:35;52.10;;;21.30;;
70588;SDS011;58152;49.202;18.744;2022-12-18T08:18:01;47.87;;;20.90;;
70588;SDS011;58152;49.202;18.744;2022-12-18T08:20:47;50.35;;;20.58;;
70588;SDS011;58152;49.202;18.744;2022-12-18T08:23:12;53.07;;;21.47;;
70588;SDS011;58152;49.202;18.744;2022-12-18T08:25:40;47.27;;;21.53;;
70588;SDS011;58152;49.202;18.744;2022-12-18T08:28:08;53.73;;;23.27;;
70588;SDS011;58152;49.202;18.744;2022-12-18T08:30:33;44.00;;;20.77;;
70588;SDS011;58152;49.202;18.744;2022-12-18T08:33:00;46.23;;;19.17;;
70588;SDS011;58152;49.202;18.744;2022-12-18T08:35:26;55.53;;;22.53;;
70588;SDS011;58152;49.202;18.744;2022-12-18T08:37:55;52.63;;;21.70;;
70588;SDS011;58152;49.202;18.744;2022-12-18T08:40:20;54.73;;;19.80;;
70588;SDS011;58152;49.202;18.744;2022-12-18T08:42:47;51.87;;;20.83;;
70588;SDS011;58152;49.202;18.744;2022-12-18T08:45:31;57.30;;;24.00;;
70588;SDS011;58152;49.202;18.744;2022-12-18T08:48:00;57.63;;;22.27;;
70588;SDS011;58152;49.202;18.744;2022-12-18T08:50:28;51.73;;;23.57;;
70588;SDS011;58152;49.202;18.744;2022-12-18T08:53:09;61.90;;;24.80;;
70588;SDS011;58152;49.202;18.744;2022-12-18T08:55:34;58.77;;;25.50;;
70588;SDS011;58152;49.202;18.744;2022-12-18T08:58:00;54.70;;;24.97;;
70588;SDS011;58152;49.202;18.744;2022-12-18T09:00:25;54.33;;;23.17;;
70588;SDS011;58152;49.202;18.744;2022-12-18T09:02:52;59.23;;;24.13;;
70588;SDS011;58152;49.202;18.744;2022-12-18T09:05:18;46.27;;;20.57;;
70588;SDS011;58152;49.202;18.744;2022-12-18T09:07:43;51.23;;;21.80;;
70588;SDS011;58152;49.202;18.744;2022-12-18T09:10:12;51.83;;;22.03;;
70588;SDS011;58152;49.202;18.744;2022-12-18T09:12:43;50.60;;;23.27;;
70588;SDS011;58152;49.202;18.744;2022-12-18T09:15:09;49.00;;;22.03;;
70588;SDS011;58152;49.202;18.744;2022-12-18T09:17:34;51.63;;;21.23;;
70588;SDS011;58152;49.202;18.744;2022-12-18T09:20:00;53.90;;;22.30;;
70588;SDS011;58152;49.202;18.744;2022-12-18T09:22:26;46.67;;;20.67;;
70588;SDS011;58152;49.202;18.744;2022-12-18T09:24:54;47.63;;;20.40;;
70588;SDS011;58152;49.202;18.744;2022-12-18T09:27:19;51.00;;;21.60;;
70588;SDS011;58152;49.202;18.744;2022-12-18T09:29:45;56.33;;;22.30;;
70588;SDS011;58152;49.202;18.744;2022-12-18T09:32:14;52.60;;;22.13;;
70588;SDS011;58152;49.202;18.744;2022-12-18T09:34:39;45.17;;;20.60;;
70588;SDS011;58152;49.202;18.744;2022-12-18T09:37:05;57.57;;;22.90;;
70588;SDS011;58152;49.202;18.744;2022-12-18T09:39:30;48.57;;;20.27;;
70588;SDS011;58152;49.202;18.744;2022-12-18T09:41:57;54.93;;;22.83;;
70588;SDS011;58152;49.202;18.744;2022-12-18T09:44:30;50.67;;;22.60;;
70588;SDS011;58152;49.202;18.744;2022-12-18T09:49:42;45.20;;;20.00;;
70588;SDS011;58152;49.202;18.744;2022-12-18T09:52:17;51.07;;;22.47;;
70588;SDS011;58152;49.202;18.744;2022-12-18T09:54:53;48.87;;;21.83;;
70588;SDS011;58152;49.202;18.744;2022-12-18T09:57:24;44.05;;;20.70;;
70588;SDS011;58152;49.202;18.744;2022-12-18T09:59:55;41.63;;;19.13;;
70588;SDS011;58152;49.202;18.744;2022-12-18T10:02:31;52.67;;;22.13;;
70588;SDS011;58152;49.202;18.744;2022-12-18T10:10:10;38.37;;;19.10;;
70588;SDS011;58152;49.202;18.744;2022-12-18T10:21:17;44.20;;;20.40;;
70588;SDS011;58152;49.202;18.744;2022-12-18T10:23:50;45.37;;;22.70;;
70588;SDS011;58152;49.202;18.744;2022-12-18T10:26:29;49.73;;;20.87;;
70588;SDS011;58152;49.202;18.744;2022-12-18T10:28:57;45.70;;;20.43;;
70588;SDS011;58152;49.202;18.744;2022-12-18T10:31:24;49.60;;;21.77;;
70588;SDS011;58152;49.202;18.744;2022-12-18T10:33:50;44.77;;;20.93;;
70588;SDS011;58152;49.202;18.744;2022-12-18T10:36:16;41.90;;;19.77;;
70588;SDS011;58152;49.202;18.744;2022-12-18T10:38:41;45.10;;;20.77;;
70588;SDS011;58152;49.202;18.744;2022-12-18T10:44:14;44.47;;;21.83;;
70588;SDS011;58152;49.202;18.744;2022-12-18T10:46:37;48.10;;;23.73;;
70588;SDS011;58152;49.202;18.744;2022-12-18T10:49:03;44.27;;;22.27;;
70588;SDS011;58152;49.202;18.744;2022-12-18T10:51:34;43.57;;;21.17;;
70588;SDS011;58152;49.202;18.744;2022-12-18T10:54:06;47.73;;;23.37;;
70588;SDS011;58152;49.202;18.744;2022-12-18T10:56:41;43.20;;;22.23;;
70588;SDS011;58152;49.202;18.744;2022-12-18T10:59:08;45.87;;;21.63;;
70588;SDS011;58152;49.202;18.744;2022-12-18T11:04:24;49.07;;;26.13;;
70588;SDS011;58152;49.202;18.744;2022-12-18T11:06:52;62.10;;;32.60;;
70588;SDS011;58152;49.202;18.744;2022-12-18T11:09:28;62.57;;;29.57;;
70588;SDS011;58152;49.202;18.744;2022-12-18T11:11:58;50.42;;;25.00;;
70588;SDS011;58152;49.202;18.744;2022-12-18T11:14:33;53.80;;;25.43;;
70588;SDS011;58152;49.202;18.744;2022-12-18T11:17:16;44.85;;;21.02;;
70588;SDS011;58152;49.202;18.744;2022-12-18T11:19:54;45.67;;;20.80;;
70588;SDS011;58152;49.202;18.744;2022-12-18T11:22:25;47.63;;;21.55;;
70588;SDS011;58152;49.202;18.744;2022-12-18T11:24:59;43.60;;;23.10;;
70588;SDS011;58152;49.202;18.744;2022-12-18T11:27:26;44.47;;;23.95;;
70588;SDS011;58152;49.202;18.744;2022-12-18T11:30:06;50.10;;;23.60;;
70588;SDS011;58152;49.202;18.744;2022-12-18T11:33:02;44.50;;;22.55;;
70588;SDS011;58152;49.202;18.744;2022-12-18T11:35:40;41.60;;;21.48;;
70588;SDS011;58152;49.202;18.744;2022-12-18T11:38:17;45.00;;;21.20;;
70588;SDS011;58152;49.202;18.744;2022-12-18T11:40:59;42.17;;;23.83;;
70588;SDS011;58152;49.202;18.744;2022-12-18T11:43:29;46.20;;;23.38;;
70588;SDS011;58152;49.202;18.744;2022-12-18T11:46:08;50.55;;;24.80;;
70588;SDS011;58152;49.202;18.744;2022-12-18T11:48:42;46.95;;;24.95;;
70588;SDS011;58152;49.202;18.744;2022-12-18T11:51:15;48.35;;;23.23;;
70588;SDS011;58152;49.202;18.744;2022-12-18T11:53:56;43.67;;;22.80;;
70588;SDS011;58152;49.202;18.744;2022-12-18T11:56:32;53.20;;;24.85;;
70588;SDS011;58152;49.202;18.744;2022-12-18T12:01:51;48.03;;;23.52;;
70588;SDS011;58152;49.202;18.744;2022-12-18T12:10:05;40.58;;;20.55;;
70588;SDS011;58152;49.202;18.744;2022-12-18T12:18:36;45.75;;;23.20;;
70588;SDS011;58152;49.202;18.744;2022-12-18T12:21:11;43.60;;;22.42;;
70588;SDS011;58152;49.202;18.744;2022-12-18T12:40:19;44.65;;;24.55;;
70588;SDS011;58152;49.202;18.744;2022-12-18T12:42:55;50.60;;;26.30;;
70588;SDS011;58152;49.202;18.744;2022-12-18T12:45:58;48.60;;;25.70;;
70588;SDS011;58152;49.202;18.744;2022-12-18T12:48:35;51.08;;;25.35;;
70588;SDS011;58152;49.202;18.744;2022-12-18T12:51:10;46.85;;;24.10;;
70588;SDS011;58152;49.202;18.744;2022-12-18T12:53:41;47.65;;;24.30;;
70588;SDS011;58152;49.202;18.744;2022-12-18T12:56:07;44.92;;;23.67;;
70588;SDS011;58152;49.202;18.744;2022-12-18T13:01:22;41.97;;;22.63;;
70588;SDS011;58152;49.202;18.744;2022-12-18T13:04:06;44.70;;;22.75;;
70588;SDS011;58152;49.202;18.744;2022-12-18T13:07:03;43.85;;;22.75;;
70588;SDS011;58152;49.202;18.744;2022-12-18T13:20:48;44.88;;;22.52;;
70588;SDS011;58152;49.202;18.744;2022-12-18T13:25:49;41.50;;;21.25;;
70588;SDS011;58152;49.202;18.744;2022-12-18T13:30:59;44.92;;;22.35;;
70588;SDS011;58152;49.202;18.744;2022-12-18T13:38:40;42.75;;;21.35;;
70588;SDS011;58152;49.202;18.744;2022-12-18T13:43:42;45.00;;;22.83;;
70588;SDS011;58152;49.202;18.744;2022-12-18T13:46:26;41.88;;;21.33;;
70588;SDS011;58152;49.202;18.744;2022-12-18T13:51:50;43.47;;;21.02;;
70588;SDS011;58152;49.202;18.744;2022-12-18T13:54:37;46.63;;;22.30;;
70588;SDS011;58152;49.202;18.744;2022-12-18T13:57:22;46.55;;;22.65;;
70588;SDS011;58152;49.202;18.744;2022-12-18T13:59:54;45.03;;;23.98;;
70588;SDS011;58152;49.202;18.744;2022-12-18T14:02:22;45.20;;;23.08;;
70588;SDS011;58152;49.202;18.744;2022-12-18T14:04:49;47.65;;;22.65;;
70588;SDS011;58152;49.202;18.744;2022-12-18T14:07:22;47.60;;;23.25;;
70588;SDS011;58152;49.202;18.744;2022-12-18T14:09:53;51.13;;;23.00;;
70588;SDS011;58152;49.202;18.744;2022-12-18T14:12:29;50.10;;;24.92;;
70588;SDS011;58152;49.202;18.744;2022-12-18T14:17:50;46.22;;;21.83;;
70588;SDS011;58152;49.202;18.744;2022-12-18T14:20:22;49.13;;;24.05;;
70588;SDS011;58152;49.202;18.744;2022-12-18T14:22:49;51.45;;;24.90;;
70588;SDS011;58152;49.202;18.744;2022-12-18T14:25:16;47.92;;;24.52;;
70588;SDS011;58152;49.202;18.744;2022-12-18T14:30:28;54.80;;;25.45;;
70588;SDS011;58152;49.202;18.744;2022-12-18T14:33:14;45.53;;;22.75;;
70588;SDS011;58152;49.202;18.744;2022-12-18T14:41:04;47.58;;;23.00;;
70588;SDS011;58152;49.202;18.744;2022-12-18T14:43:34;45.33;;;21.80;;
70588;SDS011;58152;49.202;18.744;2022-12-18T14:46:00;54.22;;;23.98;;
70588;SDS011;58152;49.202;18.744;2022-12-18T14:48:37;54.88;;;25.45;;
70588;SDS011;58152;49.202;18.744;2022-12-18T14:51:06;51.83;;;26.20;;
70588;SDS011;58152;49.202;18.744;2022-12-18T14:53:47;53.70;;;26.73;;
70588;SDS011;58152;49.202;18.744;2022-12-18T14:56:31;58.50;;;27.95;;
70588;SDS011;58152;49.202;18.744;2022-12-18T14:59:00;72.65;;;34.67;;
70588;SDS011;58152;49.202;18.744;2022-12-18T15:04:05;59.85;;;26.55;;
70588;SDS011;58152;49.202;18.744;2022-12-18T15:06:50;52.10;;;25.42;;
70588;SDS011;58152;49.202;18.744;2022-12-18T15:09:28;57.80;;;26.42;;
70588;SDS011;58152;49.202;18.744;2022-12-18T15:11:57;68.10;;;31.73;;
70588;SDS011;58152;49.202;18.744;2022-12-18T15:17:03;73.88;;;33.95;;
70588;SDS011;58152;49.202;18.744;2022-12-18T15:19:41;76.03;;;36.03;;
70588;SDS011;58152;49.202;18.744;2022-12-18T15:24:55;76.25;;;34.70;;
70588;SDS011;58152;49.202;18.744;2022-12-18T15:27:35;69.35;;;30.70;;
70588;SDS011;58152;49.202;18.744;2022-12-18T15:32:35;65.65;;;29.70;;
70588;SDS011;58152;49.202;18.744;2022-12-18T15:35:13;71.85;;;31.23;;
70588;SDS011;58152;49.202;18.744;2022-12-18T15:37:42;69.65;;;30.17;;
70588;SDS011;58152;49.202;18.744;2022-12-18T15:40:08;61.58;;;32.05;;
70588;SDS011;58152;49.202;18.744;2022-12-18T15:42:47;70.40;;;31.80;;
70588;SDS011;58152;49.202;18.744;2022-12-18T15:45:32;73.18;;;33.70;;
70588;SDS011;58152;49.202;18.744;2022-12-18T15:48:32;189.10;;;87.55;;
70588;SDS011;58152;49.202;18.744;2022-12-18T15:50:50;186.45;;;93.13;;
70588;SDS011;58152;49.202;18.744;2022-12-18T15:53:20;113.82;;;54.45;;
70588;SDS011;58152;49.202;18.744;2022-12-18T15:55:46;87.05;;;40.33;;
70588;SDS011;58152;49.202;18.744;2022-12-18T15:58:29;68.93;;;34.15;;
70588;SDS011;58152;49.202;18.744;2022-12-18T16:00:55;63.08;;;29.45;;
70588;SDS011;58152;49.202;18.744;2022-12-18T16:03:23;59.88;;;28.95;;
70588;SDS011;58152;49.202;18.744;2022-12-18T16:05:48;66.18;;;29.17;;
70588;SDS011;58152;49.202;18.744;2022-12-18T16:08:13;61.45;;;28.33;;
70588;SDS011;58152;49.202;18.744;2022-12-18T16:10:40;62.53;;;29.23;;
70588;SDS011;58152;49.202;18.744;2022-12-18T16:13:06;61.63;;;28.38;;
70588;SDS011;58152;49.202;18.744;2022-12-18T16:15:35;57.05;;;25.55;;
70588;SDS011;58152;49.202;18.744;2022-12-18T16:18:07;58.90;;;28.60;;
70588;SDS011;58152;49.202;18.744;2022-12-18T16:20:33;65.00;;;29.27;;
70588;SDS011;58152;49.202;18.744;2022-12-18T16:22:58;62.90;;;28.67;;
70588;SDS011;58152;49.202;18.744;2022-12-18T16:25:27;58.75;;;27.15;;
70588;SDS011;58152;49.202;18.744;2022-12-18T16:27:54;59.93;;;27.00;;
70588;SDS011;58152;49.202;18.744;2022-12-18T16:30:21;61.63;;;27.63;;
70588;SDS011;58152;49.202;18.744;2022-12-18T16:32:51;61.20;;;26.83;;
70588;SDS011;58152;49.202;18.744;2022-12-18T16:35:19;60.07;;;27.87;;
70588;SDS011;58152;49.202;18.744;2022-12-18T16:37:45;63.47;;;29.07;;
70588;SDS011;58152;49.202;18.744;2022-12-18T16:40:14;54.10;;;25.97;;
70588;SDS011;58152;49.202;18.744;2022-12-18T16:42:41;63.70;;;29.30;;
70588;SDS011;58152;49.202;18.744;2022-12-18T16:45:09;57.13;;;26.83;;